sensor_id;sensor_type;location;lat;lon;timestamp;temperature;humidity
16066;DHT22;8137;48.952;8.970;2023-08-08T00:00:07;11.90;99.90
16066;DHT22;8137;48.952;8.970;2023-08-08T00:02:34;11.90;99.90
16066;DHT22;8137;48.952;8.970;2023-08-08T00:04:59;11.90;99.90
16066;DHT22;8137;48.952;8.970;2023-08-08T00:07:25;11.90;99.90
16066;DHT22;8137;48.952;8.970;2023-08-08T00:09:51;11.90;99.90
16066;DHT22;8137;48.952;8.970;2023-08-08T00:12:17;11.80;99.90
16066;DHT22;8137;48.952;8.970;2023-08-08T00:14:42;11.80;99.90
16066;DHT22;8137;48.952;8.970;2023-08-08T00:17:08;11.80;99.90
16066;DHT22;8137;48.952;8.970;2023-08-08T00:19:34;11.80;99.90
16066;DHT22;8137;48.952;8.970;2023-08-08T00:21:59;11.80;99.90
16066;DHT22;8137;48.952;8.970;2023-08-08T00:24:25;11.70;99.90
16066;DHT22;8137;48.952;8.970;2023-08-08T00:26:50;11.70;99.90
16066;DHT22;8137;48.952;8.970;2023-08-08T00:29:16;11.60;99.90
16066;DHT22;8137;48.952;8.970;2023-08-08T00:31:42;11.60;99.90
16066;DHT22;8137;48.952;8.970;2023-08-08T00:34:07;11.60;99.90
16066;DHT22;8137;48.952;8.970;2023-08-08T00:36:33;11.50;99.90
16066;DHT22;8137;48.952;8.970;2023-08-08T00:38:58;11.50;99.90
16066;DHT22;8137;48.952;8.970;2023-08-08T00:41:25;11.50;99.90
16066;DHT22;8137;48.952;8.970;2023-08-08T00:43:51;11.50;99.90
16066;DHT22;8137;48.952;8.970;2023-08-08T00:46:20;11.50;99.90
16066;DHT22;8137;48.952;8.970;2023-08-08T00:48:46;11.40;99.90
16066;DHT22;8137;48.952;8.970;2023-08-08T00:51:13;11.40;99.90
16066;DHT22;8137;48.952;8.970;2023-08-08T00:53:38;11.40;99.90
16066;DHT22;8137;48.952;8.970;2023-08-08T00:56:04;11.40;99.90
16066;DHT22;8137;48.952;8.970;2023-08-08T00:58:30;11.40;99.90
16066;DHT22;8137;48.952;8.970;2023-08-08T01:00:56;11.40;99.90
16066;DHT22;8137;48.952;8.970;2023-08-08T01:03:25;11.50;99.90
16066;DHT22;8137;48.952;8.970;2023-08-08T01:06:03;11.50;99.90
16066;DHT22;8137;48.952;8.970;2023-08-08T01:08:39;11.50;99.90
16066;DHT22;8137;48.952;8.970;2023-08-08T01:11:08;11.50;99.90
16066;DHT22;8137;48.952;8.970;2023-08-08T01:13:35;11.60;99.90
16066;DHT22;8137;48.952;8.970;2023-08-08T01:16:03;11.60;99.90
16066;DHT22;8137;48.952;8.970;2023-08-08T01:18:31;11.60;99.90
16066;DHT22;8137;48.952;8.970;2023-08-08T01:20:57;11.60;99.90
16066;DHT22;8137;48.952;8.970;2023-08-08T01:23:41;11.70;99.90
16066;DHT22;8137;48.952;8.970;2023-08-08T01:26:08;11.70;99.90
16066;DHT22;8137;48.952;8.970;2023-08-08T01:28:34;11.70;99.90
16066;DHT22;8137;48.952;8.970;2023-08-08T01:31:00;11.70;99.90
16066;DHT22;8137;48.952;8.970;2023-08-08T01:33:25;11.70;99.90
16066;DHT22;8137;48.952;8.970;2023-08-08T01:35:56;11.80;99.90
16066;DHT22;8137;48.952;8.970;2023-08-08T01:38:36;11.70;99.90
16066;DHT22;8137;48.952;8.970;2023-08-08T01:41:05;11.80;99.90
16066;DHT22;8137;48.952;8.970;2023-08-08T01:43:32;11.80;99.90
16066;DHT22;8137;48.952;8.970;2023-08-08T01:45:58;11.70;99.90
16066;DHT22;8137;48.952;8.970;2023-08-08T01:48:24;11.70;99.90
16066;DHT22;8137;48.952;8.970;2023-08-08T01:50:50;11.60;99.90
16066;DHT22;8137;48.952;8.970;2023-08-08T01:53:16;11.60;99.90
16066;DHT22;8137;48.952;8.970;2023-08-08T01:55:41;11.50;99.90
16066;DHT22;8137;48.952;8.970;2023-08-08T01:58:07;11.50;99.90
16066;DHT22;8137;48.952;8.970;2023-08-08T02:00:32;11.40;99.90
16066;DHT22;8137;48.952;8.970;2023-08-08T02:02:58;11.30;99.90
16066;DHT22;8137;48.952;8.970;2023-08-08T02:05:24;11.30;99.90
16066;DHT22;8137;48.952;8.970;2023-08-08T02:07:49;11.30;99.90
16066;DHT22;8137;48.952;8.970;2023-08-08T02:10:15;11.20;99.90
16066;DHT22;8137;48.952;8.970;2023-08-08T02:12:40;11.20;99.90
16066;DHT22;8137;48.952;8.970;2023-08-08T02:15:06;11.20;99.90
16066;DHT22;8137;48.952;8.970;2023-08-08T02:17:32;11.20;99.90
16066;DHT22;8137;48.952;8.970;2023-08-08T02:19:58;11.20;99.90
16066;DHT22;8137;48.952;8.970;2023-08-08T02:22:24;11.10;99.90
16066;DHT22;8137;48.952;8.970;2023-08-08T02:24:50;11.10;99.90
16066;DHT22;8137;48.952;8.970;2023-08-08T02:27:16;11.10;99.90
16066;DHT22;8137;48.952;8.970;2023-08-08T02:29:41;11.00;99.90
16066;DHT22;8137;48.952;8.970;2023-08-08T02:32:07;11.00;99.90
16066;DHT22;8137;48.952;8.970;2023-08-08T02:34:33;10.90;99.90
16066;DHT22;8137;48.952;8.970;2023-08-08T02:36:58;10.90;99.90
16066;DHT22;8137;48.952;8.970;2023-08-08T02:39:24;10.90;99.90
16066;DHT22;8137;48.952;8.970;2023-08-08T02:41:49;10.80;99.90
16066;DHT22;8137;48.952;8.970;2023-08-08T02:44:15;10.70;99.90
16066;DHT22;8137;48.952;8.970;2023-08-08T02:46:40;10.60;99.90
16066;DHT22;8137;48.952;8.970;2023-08-08T02:49:06;10.60;99.90
16066;DHT22;8137;48.952;8.970;2023-08-08T02:51:32;10.60;99.90
16066;DHT22;8137;48.952;8.970;2023-08-08T02:53:57;10.60;99.90
16066;DHT22;8137;48.952;8.970;2023-08-08T02:56:23;10.60;99.90
16066;DHT22;8137;48.952;8.970;2023-08-08T02:58:48;10.60;99.90
16066;DHT22;8137;48.952;8.970;2023-08-08T03:01:14;10.60;99.90
16066;DHT22;8137;48.952;8.970;2023-08-08T03:03:41;10.60;99.90
16066;DHT22;8137;48.952;8.970;2023-08-08T03:06:07;10.60;99.90
16066;DHT22;8137;48.952;8.970;2023-08-08T03:08:33;10.60;99.90
16066;DHT22;8137;48.952;8.970;2023-08-08T03:10:58;10.60;99.90
16066;DHT22;8137;48.952;8.970;2023-08-08T03:13:24;10.60;99.90
16066;DHT22;8137;48.952;8.970;2023-08-08T03:15:50;10.60;99.90
16066;DHT22;8137;48.952;8.970;2023-08-08T03:18:15;10.50;99.90
16066;DHT22;8137;48.952;8.970;2023-08-08T03:20:41;10.50;99.90
16066;DHT22;8137;48.952;8.970;2023-08-08T03:23:06;10.50;99.90
16066;DHT22;8137;48.952;8.970;2023-08-08T03:25:32;10.40;99.90
16066;DHT22;8137;48.952;8.970;2023-08-08T03:27:58;10.40;99.90
16066;DHT22;8137;48.952;8.970;2023-08-08T03:30:23;10.40;99.90
16066;DHT22;8137;48.952;8.970;2023-08-08T03:32:49;10.40;99.90
16066;DHT22;8137;48.952;8.970;2023-08-08T03:35:15;10.40;99.90
16066;DHT22;8137;48.952;8.970;2023-08-08T03:37:41;10.40;99.90
16066;DHT22;8137;48.952;8.970;2023-08-08T03:40:07;10.40;99.90
16066;DHT22;8137;48.952;8.970;2023-08-08T03:42:33;10.50;99.90
16066;DHT22;8137;48.952;8.970;2023-08-08T03:44:59;10.40;99.90
16066;DHT22;8137;48.952;8.970;2023-08-08T03:47:25;10.40;99.90
16066;DHT22;8137;48.952;8.970;2023-08-08T03:49:51;10.50;99.90
16066;DHT22;8137;48.952;8.970;2023-08-08T03:52:20;10.50;99.90
16066;DHT22;8137;48.952;8.970;2023-08-08T03:54:46;10.40;99.90
16066;DHT22;8137;48.952;8.970;2023-08-08T03:57:11;10.50;99.90
16066;DHT22;8137;48.952;8.970;2023-08-08T03:59:37;10.40;99.90
16066;DHT22;8137;48.952;8.970;2023-08-08T04:02:02;10.40;99.90
16066;DHT22;8137;48.952;8.970;2023-08-08T04:04:29;10.40;99.90
16066;DHT22;8137;48.952;8.970;2023-08-08T04:06:55;10.40;99.90
16066;DHT22;8137;48.952;8.970;2023-08-08T04:09:20;10.50;99.90
16066;DHT22;8137;48.952;8.970;2023-08-08T04:11:46;10.50;99.90
16066;DHT22;8137;48.952;8.970;2023-08-08T04:14:11;10.60;99.90
16066;DHT22;8137;48.952;8.970;2023-08-08T04:16:39;10.60;99.90
16066;DHT22;8137;48.952;8.970;2023-08-08T04:19:04;10.70;99.90
16066;DHT22;8137;48.952;8.970;2023-08-08T04:21:30;10.70;99.90
16066;DHT22;8137;48.952;8.970;2023-08-08T04:23:58;10.70;99.90
16066;DHT22;8137;48.952;8.970;2023-08-08T04:26:24;10.70;99.90
16066;DHT22;8137;48.952;8.970;2023-08-08T04:28:49;10.80;99.90
16066;DHT22;8137;48.952;8.970;2023-08-08T04:31:15;10.80;99.90
16066;DHT22;8137;48.952;8.970;2023-08-08T04:33:40;10.80;99.90
16066;DHT22;8137;48.952;8.970;2023-08-08T04:36:06;10.80;99.90
16066;DHT22;8137;48.952;8.970;2023-08-08T04:38:31;10.80;99.90
16066;DHT22;8137;48.952;8.970;2023-08-08T04:40:57;10.80;99.90
16066;DHT22;8137;48.952;8.970;2023-08-08T04:43:23;10.80;99.90
16066;DHT22;8137;48.952;8.970;2023-08-08T04:45:48;10.80;99.90
16066;DHT22;8137;48.952;8.970;2023-08-08T04:48:14;10.80;99.90
16066;DHT22;8137;48.952;8.970;2023-08-08T04:50:39;10.90;99.90
16066;DHT22;8137;48.952;8.970;2023-08-08T04:53:06;10.90;99.90
16066;DHT22;8137;48.952;8.970;2023-08-08T04:55:31;11.00;99.90
16066;DHT22;8137;48.952;8.970;2023-08-08T04:57:57;11.10;99.90
16066;DHT22;8137;48.952;8.970;2023-08-08T05:00:23;11.20;99.90
16066;DHT22;8137;48.952;8.970;2023-08-08T05:02:48;11.30;99.90
16066;DHT22;8137;48.952;8.970;2023-08-08T05:05:14;11.50;99.90
16066;DHT22;8137;48.952;8.970;2023-08-08T05:07:39;11.60;99.90
16066;DHT22;8137;48.952;8.970;2023-08-08T05:10:06;11.60;99.90
16066;DHT22;8137;48.952;8.970;2023-08-08T05:12:32;11.60;99.90
16066;DHT22;8137;48.952;8.970;2023-08-08T05:14:57;11.60;99.90
16066;DHT22;8137;48.952;8.970;2023-08-08T05:17:23;11.60;99.90
16066;DHT22;8137;48.952;8.970;2023-08-08T05:19:48;11.70;99.90
16066;DHT22;8137;48.952;8.970;2023-08-08T05:22:14;11.70;99.90
16066;DHT22;8137;48.952;8.970;2023-08-08T05:24:40;11.70;99.90
16066;DHT22;8137;48.952;8.970;2023-08-08T05:27:05;11.80;99.90
16066;DHT22;8137;48.952;8.970;2023-08-08T05:29:31;12.00;99.90
16066;DHT22;8137;48.952;8.970;2023-08-08T05:31:56;12.20;99.90
16066;DHT22;8137;48.952;8.970;2023-08-08T05:34:24;12.30;99.90
16066;DHT22;8137;48.952;8.970;2023-08-08T05:36:49;12.50;99.90
16066;DHT22;8137;48.952;8.970;2023-08-08T05:39:15;12.60;99.90
16066;DHT22;8137;48.952;8.970;2023-08-08T05:41:40;12.70;99.90
16066;DHT22;8137;48.952;8.970;2023-08-08T05:44:06;12.90;99.90
16066;DHT22;8137;48.952;8.970;2023-08-08T05:46:32;13.00;99.90
16066;DHT22;8137;48.952;8.970;2023-08-08T05:48:57;13.10;99.90
16066;DHT22;8137;48.952;8.970;2023-08-08T05:51:23;13.20;99.90
16066;DHT22;8137;48.952;8.970;2023-08-08T05:53:48;13.30;99.90
16066;DHT22;8137;48.952;8.970;2023-08-08T05:56:14;13.50;99.90
16066;DHT22;8137;48.952;8.970;2023-08-08T05:58:40;13.60;99.90
16066;DHT22;8137;48.952;8.970;2023-08-08T06:01:05;13.80;99.90
16066;DHT22;8137;48.952;8.970;2023-08-08T06:03:37;13.90;99.90
16066;DHT22;8137;48.952;8.970;2023-08-08T06:06:05;14.00;99.90
16066;DHT22;8137;48.952;8.970;2023-08-08T06:08:32;14.20;99.90
16066;DHT22;8137;48.952;8.970;2023-08-08T06:10:58;14.30;99.90
16066;DHT22;8137;48.952;8.970;2023-08-08T06:13:23;14.50;99.90
16066;DHT22;8137;48.952;8.970;2023-08-08T06:15:49;14.70;99.90
16066;DHT22;8137;48.952;8.970;2023-08-08T06:18:14;14.80;99.90
16066;DHT22;8137;48.952;8.970;2023-08-08T06:20:40;15.00;99.90
16066;DHT22;8137;48.952;8.970;2023-08-08T06:23:06;15.20;99.90
16066;DHT22;8137;48.952;8.970;2023-08-08T06:25:32;15.40;99.90
16066;DHT22;8137;48.952;8.970;2023-08-08T06:27:58;15.60;99.90
16066;DHT22;8137;48.952;8.970;2023-08-08T06:30:23;15.70;99.90
16066;DHT22;8137;48.952;8.970;2023-08-08T06:32:49;15.90;99.90
16066;DHT22;8137;48.952;8.970;2023-08-08T06:35:14;16.10;99.90
16066;DHT22;8137;48.952;8.970;2023-08-08T06:37:42;16.10;99.90
16066;DHT22;8137;48.952;8.970;2023-08-08T06:40:08;16.00;99.90
16066;DHT22;8137;48.952;8.970;2023-08-08T06:42:34;16.00;99.90
16066;DHT22;8137;48.952;8.970;2023-08-08T06:45:00;16.10;99.90
16066;DHT22;8137;48.952;8.970;2023-08-08T06:47:25;16.20;99.90
16066;DHT22;8137;48.952;8.970;2023-08-08T06:49:51;16.30;99.90
16066;DHT22;8137;48.952;8.970;2023-08-08T06:52:17;16.40;99.90
16066;DHT22;8137;48.952;8.970;2023-08-08T06:54:42;16.60;99.90
16066;DHT22;8137;48.952;8.970;2023-08-08T06:57:08;16.70;99.90
16066;DHT22;8137;48.952;8.970;2023-08-08T06:59:34;16.70;99.90
16066;DHT22;8137;48.952;8.970;2023-08-08T07:01:59;16.90;99.90
16066;DHT22;8137;48.952;8.970;2023-08-08T07:04:25;17.00;99.90
16066;DHT22;8137;48.952;8.970;2023-08-08T07:06:50;17.00;99.90
16066;DHT22;8137;48.952;8.970;2023-08-08T07:09:16;17.10;99.90
16066;DHT22;8137;48.952;8.970;2023-08-08T07:11:42;17.10;99.90
16066;DHT22;8137;48.952;8.970;2023-08-08T07:14:07;17.20;99.90
16066;DHT22;8137;48.952;8.970;2023-08-08T07:16:33;17.30;99.90
16066;DHT22;8137;48.952;8.970;2023-08-08T07:18:59;17.30;99.90
16066;DHT22;8137;48.952;8.970;2023-08-08T07:21:24;17.50;99.90
16066;DHT22;8137;48.952;8.970;2023-08-08T07:23:50;17.60;99.90
16066;DHT22;8137;48.952;8.970;2023-08-08T07:26:16;17.70;99.90
16066;DHT22;8137;48.952;8.970;2023-08-08T07:28:41;17.70;99.90
16066;DHT22;8137;48.952;8.970;2023-08-08T07:31:07;17.80;99.90
16066;DHT22;8137;48.952;8.970;2023-08-08T07:33:32;18.00;99.90
16066;DHT22;8137;48.952;8.970;2023-08-08T07:35:58;18.10;99.90
16066;DHT22;8137;48.952;8.970;2023-08-08T07:38:24;18.20;99.90
16066;DHT22;8137;48.952;8.970;2023-08-08T07:40:49;18.30;99.90
16066;DHT22;8137;48.952;8.970;2023-08-08T07:43:15;18.40;99.90
16066;DHT22;8137;48.952;8.970;2023-08-08T07:45:41;18.60;99.90
16066;DHT22;8137;48.952;8.970;2023-08-08T07:48:07;19.00;99.90
16066;DHT22;8137;48.952;8.970;2023-08-08T07:50:32;19.00;99.90
16066;DHT22;8137;48.952;8.970;2023-08-08T07:52:58;19.00;99.90
16066;DHT22;8137;48.952;8.970;2023-08-08T07:55:23;19.00;99.90
16066;DHT22;8137;48.952;8.970;2023-08-08T07:57:49;19.00;99.90
16066;DHT22;8137;48.952;8.970;2023-08-08T08:00:15;18.90;99.90
16066;DHT22;8137;48.952;8.970;2023-08-08T08:02:44;18.80;99.90
16066;DHT22;8137;48.952;8.970;2023-08-08T08:05:10;18.70;99.90
16066;DHT22;8137;48.952;8.970;2023-08-08T08:07:37;19.00;99.90
16066;DHT22;8137;48.952;8.970;2023-08-08T08:10:05;19.10;99.90
16066;DHT22;8137;48.952;8.970;2023-08-08T08:12:31;19.00;99.90
16066;DHT22;8137;48.952;8.970;2023-08-08T08:14:57;18.90;99.90
16066;DHT22;8137;48.952;8.970;2023-08-08T08:17:23;18.90;99.90
16066;DHT22;8137;48.952;8.970;2023-08-08T08:19:49;18.90;99.90
16066;DHT22;8137;48.952;8.970;2023-08-08T08:22:15;18.80;99.90
16066;DHT22;8137;48.952;8.970;2023-08-08T08:24:40;19.00;99.90
16066;DHT22;8137;48.952;8.970;2023-08-08T08:27:06;19.10;99.90
16066;DHT22;8137;48.952;8.970;2023-08-08T08:29:32;19.20;99.90
16066;DHT22;8137;48.952;8.970;2023-08-08T08:31:58;19.30;99.90
16066;DHT22;8137;48.952;8.970;2023-08-08T08:34:24;19.40;99.90
16066;DHT22;8137;48.952;8.970;2023-08-08T08:36:49;19.50;99.90
16066;DHT22;8137;48.952;8.970;2023-08-08T08:39:15;19.60;99.90
16066;DHT22;8137;48.952;8.970;2023-08-08T08:41:40;19.70;99.90
16066;DHT22;8137;48.952;8.970;2023-08-08T08:44:06;19.70;99.90
16066;DHT22;8137;48.952;8.970;2023-08-08T08:46:32;19.70;99.90
16066;DHT22;8137;48.952;8.970;2023-08-08T08:49:02;19.50;99.90
16066;DHT22;8137;48.952;8.970;2023-08-08T08:51:30;19.70;99.90
16066;DHT22;8137;48.952;8.970;2023-08-08T08:53:58;19.90;99.90
16066;DHT22;8137;48.952;8.970;2023-08-08T08:56:24;20.00;99.90
16066;DHT22;8137;48.952;8.970;2023-08-08T08:58:51;20.30;99.90
16066;DHT22;8137;48.952;8.970;2023-08-08T09:01:16;20.20;99.90
16066;DHT22;8137;48.952;8.970;2023-08-08T09:03:44;20.40;99.90
16066;DHT22;8137;48.952;8.970;2023-08-08T09:06:11;20.50;99.90
16066;DHT22;8137;48.952;8.970;2023-08-08T09:08:37;20.40;99.90
16066;DHT22;8137;48.952;8.970;2023-08-08T09:11:02;20.20;99.90
16066;DHT22;8137;48.952;8.970;2023-08-08T09:13:36;20.40;99.90
16066;DHT22;8137;48.952;8.970;2023-08-08T09:16:02;20.40;99.90
16066;DHT22;8137;48.952;8.970;2023-08-08T09:18:31;20.40;99.90
16066;DHT22;8137;48.952;8.970;2023-08-08T09:20:58;20.20;99.90
16066;DHT22;8137;48.952;8.970;2023-08-08T09:23:24;20.10;99.90
16066;DHT22;8137;48.952;8.970;2023-08-08T09:25:50;20.30;99.90
16066;DHT22;8137;48.952;8.970;2023-08-08T09:28:16;20.40;99.90
16066;DHT22;8137;48.952;8.970;2023-08-08T09:30:42;20.40;99.90
16066;DHT22;8137;48.952;8.970;2023-08-08T09:33:08;20.50;99.90
16066;DHT22;8137;48.952;8.970;2023-08-08T09:35:34;20.40;99.90
16066;DHT22;8137;48.952;8.970;2023-08-08T09:38:00;20.40;99.90
16066;DHT22;8137;48.952;8.970;2023-08-08T09:40:25;20.40;99.90
16066;DHT22;8137;48.952;8.970;2023-08-08T09:42:52;20.60;99.90
16066;DHT22;8137;48.952;8.970;2023-08-08T09:45:19;20.70;99.90
16066;DHT22;8137;48.952;8.970;2023-08-08T09:47:45;20.70;99.90
16066;DHT22;8137;48.952;8.970;2023-08-08T09:50:11;20.80;99.90
16066;DHT22;8137;48.952;8.970;2023-08-08T09:52:38;21.10;99.90
16066;DHT22;8137;48.952;8.970;2023-08-08T09:55:06;21.10;99.90
16066;DHT22;8137;48.952;8.970;2023-08-08T09:57:33;20.90;99.90
16066;DHT22;8137;48.952;8.970;2023-08-08T09:59:58;20.80;99.90
16066;DHT22;8137;48.952;8.970;2023-08-08T10:02:25;20.90;99.90
16066;DHT22;8137;48.952;8.970;2023-08-08T10:04:51;20.80;99.90
16066;DHT22;8137;48.952;8.970;2023-08-08T10:07:17;20.80;99.90
16066;DHT22;8137;48.952;8.970;2023-08-08T10:09:43;20.90;99.90
16066;DHT22;8137;48.952;8.970;2023-08-08T10:12:11;21.10;99.90
16066;DHT22;8137;48.952;8.970;2023-08-08T10:14:41;21.20;99.90
16066;DHT22;8137;48.952;8.970;2023-08-08T10:17:07;21.30;99.90
16066;DHT22;8137;48.952;8.970;2023-08-08T10:19:33;21.20;99.90
16066;DHT22;8137;48.952;8.970;2023-08-08T10:22:04;21.20;99.90
16066;DHT22;8137;48.952;8.970;2023-08-08T10:24:34;21.20;99.90
16066;DHT22;8137;48.952;8.970;2023-08-08T10:27:04;21.40;99.00
16066;DHT22;8137;48.952;8.970;2023-08-08T10:29:32;21.50;99.90
16066;DHT22;8137;48.952;8.970;2023-08-08T10:31:59;22.10;99.90
16066;DHT22;8137;48.952;8.970;2023-08-08T10:34:37;22.50;99.10
16066;DHT22;8137;48.952;8.970;2023-08-08T10:37:15;22.50;99.90
16066;DHT22;8137;48.952;8.970;2023-08-08T10:40:09;22.50;93.90
16066;DHT22;8137;48.952;8.970;2023-08-08T10:42:44;22.30;92.40
16066;DHT22;8137;48.952;8.970;2023-08-08T10:45:13;22.20;90.80
16066;DHT22;8137;48.952;8.970;2023-08-08T10:47:39;22.20;92.20
16066;DHT22;8137;48.952;8.970;2023-08-08T10:50:10;22.20;91.50
16066;DHT22;8137;48.952;8.970;2023-08-08T10:52:53;22.20;92.00
16066;DHT22;8137;48.952;8.970;2023-08-08T10:55:31;22.30;93.50
16066;DHT22;8137;48.952;8.970;2023-08-08T10:58:02;22.40;92.00
16066;DHT22;8137;48.952;8.970;2023-08-08T11:00:36;22.40;91.00
16066;DHT22;8137;48.952;8.970;2023-08-08T11:03:03;22.60;91.20
16066;DHT22;8137;48.952;8.970;2023-08-08T11:05:32;22.70;86.60
16066;DHT22;8137;48.952;8.970;2023-08-08T11:08:00;23.00;85.50
16066;DHT22;8137;48.952;8.970;2023-08-08T11:10:26;22.70;80.90
16066;DHT22;8137;48.952;8.970;2023-08-08T11:12:59;22.60;76.70
16066;DHT22;8137;48.952;8.970;2023-08-08T11:15:25;22.80;72.20
16066;DHT22;8137;48.952;8.970;2023-08-08T11:17:53;22.40;74.20
16066;DHT22;8137;48.952;8.970;2023-08-08T11:20:18;22.70;78.00
16066;DHT22;8137;48.952;8.970;2023-08-08T11:22:44;23.00;77.70
16066;DHT22;8137;48.952;8.970;2023-08-08T11:25:09;23.00;74.90
16066;DHT22;8137;48.952;8.970;2023-08-08T11:27:35;22.60;73.70
16066;DHT22;8137;48.952;8.970;2023-08-08T11:30:01;22.40;68.30
16066;DHT22;8137;48.952;8.970;2023-08-08T11:32:27;22.20;65.60
16066;DHT22;8137;48.952;8.970;2023-08-08T11:34:56;22.20;69.60
16066;DHT22;8137;48.952;8.970;2023-08-08T11:37:22;22.40;64.50
16066;DHT22;8137;48.952;8.970;2023-08-08T11:39:49;22.30;59.30
16066;DHT22;8137;48.952;8.970;2023-08-08T11:42:14;22.30;59.60
16066;DHT22;8137;48.952;8.970;2023-08-08T11:44:40;22.40;63.20
16066;DHT22;8137;48.952;8.970;2023-08-08T11:47:07;22.40;57.50
16066;DHT22;8137;48.952;8.970;2023-08-08T11:49:43;22.40;55.90
16066;DHT22;8137;48.952;8.970;2023-08-08T11:52:08;22.70;56.80
16066;DHT22;8137;48.952;8.970;2023-08-08T11:54:37;22.90;58.90
16066;DHT22;8137;48.952;8.970;2023-08-08T11:57:03;22.70;55.00
16066;DHT22;8137;48.952;8.970;2023-08-08T11:59:31;22.60;50.40
16066;DHT22;8137;48.952;8.970;2023-08-08T12:01:56;22.70;52.20
16066;DHT22;8137;48.952;8.970;2023-08-08T12:04:22;23.00;54.00
16066;DHT22;8137;48.952;8.970;2023-08-08T12:06:48;23.20;54.30
16066;DHT22;8137;48.952;8.970;2023-08-08T12:09:14;23.50;57.30
16066;DHT22;8137;48.952;8.970;2023-08-08T12:11:40;23.40;53.60
16066;DHT22;8137;48.952;8.970;2023-08-08T12:14:07;23.40;50.50
16066;DHT22;8137;48.952;8.970;2023-08-08T12:16:38;23.40;50.20
16066;DHT22;8137;48.952;8.970;2023-08-08T12:19:07;22.90;45.20
16066;DHT22;8137;48.952;8.970;2023-08-08T12:21:34;22.60;37.20
16066;DHT22;8137;48.952;8.970;2023-08-08T12:24:01;22.30;38.40
16066;DHT22;8137;48.952;8.970;2023-08-08T12:26:26;22.60;44.30
16066;DHT22;8137;48.952;8.970;2023-08-08T12:28:52;22.70;43.90
16066;DHT22;8137;48.952;8.970;2023-08-08T12:31:19;22.70;45.20
16066;DHT22;8137;48.952;8.970;2023-08-08T12:33:45;22.70;43.80
16066;DHT22;8137;48.952;8.970;2023-08-08T12:36:14;22.90;45.80
16066;DHT22;8137;48.952;8.970;2023-08-08T12:38:40;23.20;44.20
16066;DHT22;8137;48.952;8.970;2023-08-08T12:41:05;23.30;42.60
16066;DHT22;8137;48.952;8.970;2023-08-08T12:43:32;23.00;41.90
16066;DHT22;8137;48.952;8.970;2023-08-08T12:45:59;22.90;40.70
16066;DHT22;8137;48.952;8.970;2023-08-08T12:48:25;22.70;46.50
16066;DHT22;8137;48.952;8.970;2023-08-08T12:50:50;23.00;46.50
16066;DHT22;8137;48.952;8.970;2023-08-08T12:53:16;23.00;46.00
16066;DHT22;8137;48.952;8.970;2023-08-08T12:55:41;23.10;42.30
16066;DHT22;8137;48.952;8.970;2023-08-08T12:58:07;23.10;40.70
16066;DHT22;8137;48.952;8.970;2023-08-08T13:00:33;22.80;40.50
16066;DHT22;8137;48.952;8.970;2023-08-08T13:02:58;23.10;44.10
16066;DHT22;8137;48.952;8.970;2023-08-08T13:05:24;23.20;45.50
16066;DHT22;8137;48.952;8.970;2023-08-08T13:07:52;23.10;47.90
16066;DHT22;8137;48.952;8.970;2023-08-08T13:10:17;23.00;46.10
16066;DHT22;8137;48.952;8.970;2023-08-08T13:12:46;23.20;47.90
16066;DHT22;8137;48.952;8.970;2023-08-08T13:15:11;23.10;46.90
16066;DHT22;8137;48.952;8.970;2023-08-08T13:17:37;23.20;47.30
16066;DHT22;8137;48.952;8.970;2023-08-08T13:20:03;23.30;49.30
16066;DHT22;8137;48.952;8.970;2023-08-08T13:22:29;23.30;45.20
16066;DHT22;8137;48.952;8.970;2023-08-08T13:24:54;23.10;43.30
16066;DHT22;8137;48.952;8.970;2023-08-08T13:27:20;23.20;46.70
16066;DHT22;8137;48.952;8.970;2023-08-08T13:29:46;23.10;45.50
16066;DHT22;8137;48.952;8.970;2023-08-08T13:32:12;23.30;51.30
16066;DHT22;8137;48.952;8.970;2023-08-08T13:34:38;23.40;44.50
16066;DHT22;8137;48.952;8.970;2023-08-08T13:37:03;23.30;47.80
16066;DHT22;8137;48.952;8.970;2023-08-08T13:39:30;23.50;47.70
16066;DHT22;8137;48.952;8.970;2023-08-08T13:41:55;23.40;44.00
16066;DHT22;8137;48.952;8.970;2023-08-08T13:44:21;23.30;46.00
16066;DHT22;8137;48.952;8.970;2023-08-08T13:46:47;23.10;45.60
16066;DHT22;8137;48.952;8.970;2023-08-08T13:49:12;23.30;48.60
16066;DHT22;8137;48.952;8.970;2023-08-08T13:51:38;23.60;51.00
16066;DHT22;8137;48.952;8.970;2023-08-08T13:54:03;24.00;54.10
16066;DHT22;8137;48.952;8.970;2023-08-08T13:56:29;23.90;48.80
16066;DHT22;8137;48.952;8.970;2023-08-08T13:58:55;23.50;44.50
16066;DHT22;8137;48.952;8.970;2023-08-08T14:01:21;23.70;49.30
16066;DHT22;8137;48.952;8.970;2023-08-08T14:03:46;23.80;44.50
16066;DHT22;8137;48.952;8.970;2023-08-08T14:06:12;23.90;46.80
16066;DHT22;8137;48.952;8.970;2023-08-08T14:08:38;24.00;43.40
16066;DHT22;8137;48.952;8.970;2023-08-08T14:11:03;23.70;42.90
16066;DHT22;8137;48.952;8.970;2023-08-08T14:13:29;23.60;43.90
16066;DHT22;8137;48.952;8.970;2023-08-08T14:15:54;23.60;44.00
16066;DHT22;8137;48.952;8.970;2023-08-08T14:18:20;23.70;44.60
16066;DHT22;8137;48.952;8.970;2023-08-08T14:20:46;23.70;45.10
16066;DHT22;8137;48.952;8.970;2023-08-08T14:23:11;23.70;43.90
16066;DHT22;8137;48.952;8.970;2023-08-08T14:25:37;23.80;47.80
16066;DHT22;8137;48.952;8.970;2023-08-08T14:28:03;24.00;42.60
16066;DHT22;8137;48.952;8.970;2023-08-08T14:30:29;23.80;42.90
16066;DHT22;8137;48.952;8.970;2023-08-08T14:32:56;23.70;44.70
16066;DHT22;8137;48.952;8.970;2023-08-08T14:35:22;23.70;45.80
16066;DHT22;8137;48.952;8.970;2023-08-08T14:37:47;23.80;47.20
16066;DHT22;8137;48.952;8.970;2023-08-08T14:40:13;23.70;43.70
16066;DHT22;8137;48.952;8.970;2023-08-08T14:42:38;23.80;43.20
16066;DHT22;8137;48.952;8.970;2023-08-08T14:45:04;23.70;45.20
16066;DHT22;8137;48.952;8.970;2023-08-08T14:47:30;23.50;46.10
16066;DHT22;8137;48.952;8.970;2023-08-08T14:49:56;23.30;45.60
16066;DHT22;8137;48.952;8.970;2023-08-08T14:52:22;23.10;44.80
16066;DHT22;8137;48.952;8.970;2023-08-08T14:54:47;23.20;46.40
16066;DHT22;8137;48.952;8.970;2023-08-08T14:57:13;23.30;45.30
16066;DHT22;8137;48.952;8.970;2023-08-08T14:59:39;23.30;45.00
16066;DHT22;8137;48.952;8.970;2023-08-08T15:02:05;23.20;44.80
16066;DHT22;8137;48.952;8.970;2023-08-08T15:04:30;22.90;42.80
16066;DHT22;8137;48.952;8.970;2023-08-08T15:06:57;22.50;43.60
16066;DHT22;8137;48.952;8.970;2023-08-08T15:09:22;22.40;45.90
16066;DHT22;8137;48.952;8.970;2023-08-08T15:11:48;22.60;49.10
16066;DHT22;8137;48.952;8.970;2023-08-08T15:14:13;22.70;50.80
16066;DHT22;8137;48.952;8.970;2023-08-08T15:16:39;22.80;45.90
16066;DHT22;8137;48.952;8.970;2023-08-08T15:19:04;22.60;44.60
16066;DHT22;8137;48.952;8.970;2023-08-08T15:21:31;22.30;46.40
16066;DHT22;8137;48.952;8.970;2023-08-08T15:23:57;22.30;49.10
16066;DHT22;8137;48.952;8.970;2023-08-08T15:26:22;22.40;51.90
16066;DHT22;8137;48.952;8.970;2023-08-08T15:28:49;22.60;52.90
16066;DHT22;8137;48.952;8.970;2023-08-08T15:31:15;22.80;52.00
16066;DHT22;8137;48.952;8.970;2023-08-08T15:33:41;23.00;52.60
16066;DHT22;8137;48.952;8.970;2023-08-08T15:36:08;23.20;50.60
16066;DHT22;8137;48.952;8.970;2023-08-08T15:38:33;23.00;52.90